sensor_id;sensor_type;location;lat;lon;timestamp;P1;durP1;ratioP1;P2;durP2;ratioP2
71106;SDS011;58763;47.982;11.516;2023-09-30T00:01:02;25.25;;;9.32;;
71106;SDS011;58763;47.982;11.516;2023-09-30T00:03:33;22.67;;;9.27;;
71106;SDS011;58763;47.982;11.516;2023-09-30T00:05:59;24.70;;;9.07;;
71106;SDS011;58763;47.982;11.516;2023-09-30T00:08:24;23.20;;;9.00;;
71106;SDS011;58763;47.982;11.516;2023-09-30T00:10:50;23.00;;;9.32;;
71106;SDS011;58763;47.982;11.516;2023-09-30T00:13:18;24.25;;;9.32;;
71106;SDS011;58763;47.982;11.516;2023-09-30T00:15:45;25.30;;;9.75;;
71106;SDS011;58763;47.982;11.516;2023-09-30T00:18:10;27.90;;;10.45;;
71106;SDS011;58763;47.982;11.516;2023-09-30T00:20:36;25.02;;;10.10;;
71106;SDS011;58763;47.982;11.516;2023-09-30T00:23:02;24.50;;;9.63;;
71106;SDS011;58763;47.982;11.516;2023-09-30T00:25:27;24.50;;;9.35;;
71106;SDS011;58763;47.982;11.516;2023-09-30T00:27:53;22.52;;;8.98;;
71106;SDS011;58763;47.982;11.516;2023-09-30T00:30:18;26.08;;;9.73;;
71106;SDS011;58763;47.982;11.516;2023-09-30T00:32:43;25.80;;;9.50;;
71106;SDS011;58763;47.982;11.516;2023-09-30T00:35:10;25.08;;;9.65;;
71106;SDS011;58763;47.982;11.516;2023-09-30T00:37:38;25.77;;;9.38;;
71106;SDS011;58763;47.982;11.516;2023-09-30T00:40:04;24.83;;;9.73;;
71106;SDS011;58763;47.982;11.516;2023-09-30T00:42:31;21.60;;;8.80;;
71106;SDS011;58763;47.982;11.516;2023-09-30T00:44:57;23.83;;;9.13;;
71106;SDS011;58763;47.982;11.516;2023-09-30T00:47:22;23.25;;;9.38;;
71106;SDS011;58763;47.982;11.516;2023-09-30T00:49:52;24.05;;;9.27;;
71106;SDS011;58763;47.982;11.516;2023-09-30T00:52:19;24.60;;;10.17;;
71106;SDS011;58763;47.982;11.516;2023-09-30T00:54:45;22.80;;;8.45;;
71106;SDS011;58763;47.982;11.516;2023-09-30T00:57:11;24.80;;;9.48;;
71106;SDS011;58763;47.982;11.516;2023-09-30T00:59:38;23.35;;;9.32;;
71106;SDS011;58763;47.982;11.516;2023-09-30T01:02:04;24.52;;;9.85;;
71106;SDS011;58763;47.982;11.516;2023-09-30T01:04:31;22.50;;;9.30;;
71106;SDS011;58763;47.982;11.516;2023-09-30T01:06:57;24.35;;;9.00;;
71106;SDS011;58763;47.982;11.516;2023-09-30T01:09:22;24.75;;;9.05;;
71106;SDS011;58763;47.982;11.516;2023-09-30T01:11:48;20.73;;;7.72;;
71106;SDS011;58763;47.982;11.516;2023-09-30T01:14:33;24.33;;;8.55;;
71106;SDS011;58763;47.982;11.516;2023-09-30T01:17:06;24.63;;;8.55;;
71106;SDS011;58763;47.982;11.516;2023-09-30T01:19:34;22.42;;;8.77;;
71106;SDS011;58763;47.982;11.516;2023-09-30T01:22:00;25.20;;;9.10;;
71106;SDS011;58763;47.982;11.516;2023-09-30T01:24:29;22.00;;;8.68;;
71106;SDS011;58763;47.982;11.516;2023-09-30T01:26:56;26.83;;;9.80;;
71106;SDS011;58763;47.982;11.516;2023-09-30T01:29:22;24.65;;;8.60;;
71106;SDS011;58763;47.982;11.516;2023-09-30T01:31:50;26.70;;;9.18;;
71106;SDS011;58763;47.982;11.516;2023-09-30T01:34:15;21.70;;;8.93;;
71106;SDS011;58763;47.982;11.516;2023-09-30T01:36:41;21.10;;;8.63;;
71106;SDS011;58763;47.982;11.516;2023-09-30T01:39:09;24.63;;;9.40;;
71106;SDS011;58763;47.982;11.516;2023-09-30T01:41:36;23.40;;;8.70;;
71106;SDS011;58763;47.982;11.516;2023-09-30T01:44:02;23.85;;;9.18;;
71106;SDS011;58763;47.982;11.516;2023-09-30T01:46:28;23.92;;;8.65;;
71106;SDS011;58763;47.982;11.516;2023-09-30T01:48:54;24.27;;;9.10;;
71106;SDS011;58763;47.982;11.516;2023-09-30T01:51:20;21.38;;;8.82;;
71106;SDS011;58763;47.982;11.516;2023-09-30T01:53:47;24.58;;;9.38;;
71106;SDS011;58763;47.982;11.516;2023-09-30T01:56:13;26.02;;;9.45;;
71106;SDS011;58763;47.982;11.516;2023-09-30T01:58:38;22.35;;;9.43;;
71106;SDS011;58763;47.982;11.516;2023-09-30T02:01:04;21.17;;;7.85;;
71106;SDS011;58763;47.982;11.516;2023-09-30T02:03:30;25.50;;;9.07;;
71106;SDS011;58763;47.982;11.516;2023-09-30T02:05:56;23.17;;;8.60;;
71106;SDS011;58763;47.982;11.516;2023-09-30T02:08:23;22.08;;;8.65;;
71106;SDS011;58763;47.982;11.516;2023-09-30T02:10:48;25.45;;;9.35;;
71106;SDS011;58763;47.982;11.516;2023-09-30T02:13:16;25.70;;;9.65;;
71106;SDS011;58763;47.982;11.516;2023-09-30T02:15:42;22.05;;;8.50;;
71106;SDS011;58763;47.982;11.516;2023-09-30T02:18:08;23.52;;;8.75;;
71106;SDS011;58763;47.982;11.516;2023-09-30T02:20:34;26.27;;;9.60;;
71106;SDS011;58763;47.982;11.516;2023-09-30T02:23:09;23.35;;;8.43;;
71106;SDS011;58763;47.982;11.516;2023-09-30T02:25:41;24.42;;;8.98;;
71106;SDS011;58763;47.982;11.516;2023-09-30T02:28:08;23.67;;;8.85;;
71106;SDS011;58763;47.982;11.516;2023-09-30T02:30:34;22.45;;;8.52;;
71106;SDS011;58763;47.982;11.516;2023-09-30T02:33:01;23.10;;;9.07;;
71106;SDS011;58763;47.982;11.516;2023-09-30T02:35:27;23.75;;;8.48;;
71106;SDS011;58763;47.982;11.516;2023-09-30T02:37:53;20.85;;;8.07;;
71106;SDS011;58763;47.982;11.516;2023-09-30T02:40:19;23.25;;;8.23;;
71106;SDS011;58763;47.982;11.516;2023-09-30T02:42:45;22.27;;;7.88;;
71106;SDS011;58763;47.982;11.516;2023-09-30T02:45:12;21.90;;;8.25;;
71106;SDS011;58763;47.982;11.516;2023-09-30T02:47:39;21.60;;;8.00;;
71106;SDS011;58763;47.982;11.516;2023-09-30T02:50:05;21.20;;;7.95;;
71106;SDS011;58763;47.982;11.516;2023-09-30T02:52:39;21.65;;;8.27;;
71106;SDS011;58763;47.982;11.516;2023-09-30T02:55:07;21.90;;;7.90;;
71106;SDS011;58763;47.982;11.516;2023-09-30T02:57:35;29.42;;;8.88;;
71106;SDS011;58763;47.982;11.516;2023-09-30T03:00:02;25.08;;;8.50;;
71106;SDS011;58763;47.982;11.516;2023-09-30T03:02:39;21.50;;;7.40;;
71106;SDS011;58763;47.982;11.516;2023-09-30T03:05:04;23.15;;;8.00;;
71106;SDS011;58763;47.982;11.516;2023-09-30T03:07:31;22.33;;;8.00;;
71106;SDS011;58763;47.982;11.516;2023-09-30T03:09:58;22.45;;;7.72;;
71106;SDS011;58763;47.982;11.516;2023-09-30T03:12:25;20.60;;;7.93;;
71106;SDS011;58763;47.982;11.516;2023-09-30T03:14:51;19.80;;;7.85;;
71106;SDS011;58763;47.982;11.516;2023-09-30T03:17:16;21.75;;;7.32;;
71106;SDS011;58763;47.982;11.516;2023-09-30T03:19:43;21.58;;;7.90;;
71106;SDS011;58763;47.982;11.516;2023-09-30T03:22:09;20.90;;;7.80;;
71106;SDS011;58763;47.982;11.516;2023-09-30T03:24:37;22.85;;;8.10;;
71106;SDS011;58763;47.982;11.516;2023-09-30T03:27:04;21.80;;;8.15;;
71106;SDS011;58763;47.982;11.516;2023-09-30T03:29:30;20.98;;;7.90;;
71106;SDS011;58763;47.982;11.516;2023-09-30T03:31:56;19.42;;;7.68;;
71106;SDS011;58763;47.982;11.516;2023-09-30T03:34:21;19.25;;;7.50;;
71106;SDS011;58763;47.982;11.516;2023-09-30T03:36:47;21.00;;;8.27;;
71106;SDS011;58763;47.982;11.516;2023-09-30T03:39:13;18.20;;;7.00;;
71106;SDS011;58763;47.982;11.516;2023-09-30T03:41:40;20.45;;;7.38;;
71106;SDS011;58763;47.982;11.516;2023-09-30T03:44:06;22.15;;;7.90;;
71106;SDS011;58763;47.982;11.516;2023-09-30T03:46:31;21.42;;;8.40;;
71106;SDS011;58763;47.982;11.516;2023-09-30T03:48:57;21.00;;;7.47;;
71106;SDS011;58763;47.982;11.516;2023-09-30T03:51:24;17.77;;;7.35;;
71106;SDS011;58763;47.982;11.516;2023-09-30T03:53:50;22.00;;;7.45;;
71106;SDS011;58763;47.982;11.516;2023-09-30T03:56:16;20.27;;;7.55;;
71106;SDS011;58763;47.982;11.516;2023-09-30T03:58:43;16.73;;;7.18;;
71106;SDS011;58763;47.982;11.516;2023-09-30T04:01:10;20.10;;;7.32;;
71106;SDS011;58763;47.982;11.516;2023-09-30T04:03:39;20.10;;;7.45;;
71106;SDS011;58763;47.982;11.516;2023-09-30T04:06:06;20.15;;;7.75;;
71106;SDS011;58763;47.982;11.516;2023-09-30T04:08:34;19.30;;;6.95;;
71106;SDS011;58763;47.982;11.516;2023-09-30T04:11:01;21.73;;;7.57;;
71106;SDS011;58763;47.982;11.516;2023-09-30T04:13:30;16.75;;;6.35;;
71106;SDS011;58763;47.982;11.516;2023-09-30T04:15:55;18.98;;;7.05;;
71106;SDS011;58763;47.982;11.516;2023-09-30T04:18:23;19.10;;;6.68;;
71106;SDS011;58763;47.982;11.516;2023-09-30T04:20:51;19.55;;;7.25;;
71106;SDS011;58763;47.982;11.516;2023-09-30T04:23:18;19.85;;;7.05;;
71106;SDS011;58763;47.982;11.516;2023-09-30T04:25:46;18.88;;;7.40;;
71106;SDS011;58763;47.982;11.516;2023-09-30T04:28:14;18.38;;;6.88;;
71106;SDS011;58763;47.982;11.516;2023-09-30T04:30:40;20.75;;;7.05;;
71106;SDS011;58763;47.982;11.516;2023-09-30T04:33:06;18.27;;;6.80;;
71106;SDS011;58763;47.982;11.516;2023-09-30T04:35:33;20.85;;;7.28;;
71106;SDS011;58763;47.982;11.516;2023-09-30T04:38:00;16.88;;;7.10;;
71106;SDS011;58763;47.982;11.516;2023-09-30T04:40:26;20.73;;;7.38;;
71106;SDS011;58763;47.982;11.516;2023-09-30T04:42:52;20.23;;;8.07;;
71106;SDS011;58763;47.982;11.516;2023-09-30T04:47:50;17.17;;;6.72;;
71106;SDS011;58763;47.982;11.516;2023-09-30T04:50:15;22.95;;;6.80;;
71106;SDS011;58763;47.982;11.516;2023-09-30T04:52:42;19.63;;;7.57;;
71106;SDS011;58763;47.982;11.516;2023-09-30T04:55:08;18.40;;;6.75;;
71106;SDS011;58763;47.982;11.516;2023-09-30T04:57:34;20.00;;;7.53;;
71106;SDS011;58763;47.982;11.516;2023-09-30T05:00:01;21.15;;;7.30;;
71106;SDS011;58763;47.982;11.516;2023-09-30T05:02:27;18.55;;;7.32;;
71106;SDS011;58763;47.982;11.516;2023-09-30T05:04:52;16.55;;;7.18;;
71106;SDS011;58763;47.982;11.516;2023-09-30T05:07:19;18.40;;;6.47;;
71106;SDS011;58763;47.982;11.516;2023-09-30T05:09:47;17.48;;;7.15;;
71106;SDS011;58763;47.982;11.516;2023-09-30T05:12:12;20.70;;;7.40;;
71106;SDS011;58763;47.982;11.516;2023-09-30T05:14:38;18.15;;;6.70;;
71106;SDS011;58763;47.982;11.516;2023-09-30T05:17:04;20.63;;;7.35;;
71106;SDS011;58763;47.982;11.516;2023-09-30T05:19:30;19.25;;;7.20;;
71106;SDS011;58763;47.982;11.516;2023-09-30T05:21:57;18.25;;;7.07;;
71106;SDS011;58763;47.982;11.516;2023-09-30T05:24:23;17.95;;;7.20;;
71106;SDS011;58763;47.982;11.516;2023-09-30T05:26:49;20.17;;;7.25;;
71106;SDS011;58763;47.982;11.516;2023-09-30T05:29:14;20.38;;;7.25;;
71106;SDS011;58763;47.982;11.516;2023-09-30T05:31:42;17.88;;;7.10;;
71106;SDS011;58763;47.982;11.516;2023-09-30T05:34:07;20.20;;;6.88;;
71106;SDS011;58763;47.982;11.516;2023-09-30T05:36:33;17.08;;;6.57;;
71106;SDS011;58763;47.982;11.516;2023-09-30T05:38:59;19.20;;;6.47;;
71106;SDS011;58763;47.982;11.516;2023-09-30T05:41:25;15.73;;;6.20;;
71106;SDS011;58763;47.982;11.516;2023-09-30T05:43:52;19.05;;;6.85;;
71106;SDS011;58763;47.982;11.516;2023-09-30T05:46:18;17.58;;;6.45;;
71106;SDS011;58763;47.982;11.516;2023-09-30T05:48:44;16.48;;;6.80;;
71106;SDS011;58763;47.982;11.516;2023-09-30T05:51:09;15.20;;;6.30;;
71106;SDS011;58763;47.982;11.516;2023-09-30T05:53:39;16.00;;;5.88;;
71106;SDS011;58763;47.982;11.516;2023-09-30T05:56:04;19.05;;;6.93;;
71106;SDS011;58763;47.982;11.516;2023-09-30T05:58:29;19.42;;;6.70;;
71106;SDS011;58763;47.982;11.516;2023-09-30T06:00:55;17.60;;;6.65;;
71106;SDS011;58763;47.982;11.516;2023-09-30T06:03:21;16.75;;;6.40;;
71106;SDS011;58763;47.982;11.516;2023-09-30T06:05:47;19.27;;;6.93;;
71106;SDS011;58763;47.982;11.516;2023-09-30T06:08:13;17.73;;;6.80;;
71106;SDS011;58763;47.982;11.516;2023-09-30T06:10:40;18.25;;;6.70;;
71106;SDS011;58763;47.982;11.516;2023-09-30T06:13:08;19.50;;;6.82;;
71106;SDS011;58763;47.982;11.516;2023-09-30T06:15:36;17.05;;;6.18;;
71106;SDS011;58763;47.982;11.516;2023-09-30T06:18:05;17.55;;;6.10;;
71106;SDS011;58763;47.982;11.516;2023-09-30T06:20:32;17.73;;;5.65;;
71106;SDS011;58763;47.982;11.516;2023-09-30T06:22:59;16.05;;;5.80;;
71106;SDS011;58763;47.982;11.516;2023-09-30T06:25:28;15.70;;;5.57;;
71106;SDS011;58763;47.982;11.516;2023-09-30T06:27:55;16.88;;;5.85;;
71106;SDS011;58763;47.982;11.516;2023-09-30T06:30:21;14.52;;;5.35;;
71106;SDS011;58763;47.982;11.516;2023-09-30T06:32:50;16.17;;;5.70;;
71106;SDS011;58763;47.982;11.516;2023-09-30T06:35:15;15.38;;;5.72;;
71106;SDS011;58763;47.982;11.516;2023-09-30T06:37:41;14.52;;;4.93;;
71106;SDS011;58763;47.982;11.516;2023-09-30T06:40:08;14.15;;;5.47;;
71106;SDS011;58763;47.982;11.516;2023-09-30T06:42:37;18.60;;;5.95;;
71106;SDS011;58763;47.982;11.516;2023-09-30T06:45:05;18.50;;;6.00;;
71106;SDS011;58763;47.982;11.516;2023-09-30T06:47:34;14.90;;;6.00;;
71106;SDS011;58763;47.982;11.516;2023-09-30T06:50:03;15.35;;;6.35;;
71106;SDS011;58763;47.982;11.516;2023-09-30T06:52:33;15.57;;;5.78;;
71106;SDS011;58763;47.982;11.516;2023-09-30T06:55:01;16.77;;;6.15;;
71106;SDS011;58763;47.982;11.516;2023-09-30T06:57:31;16.90;;;6.45;;
71106;SDS011;58763;47.982;11.516;2023-09-30T06:59:57;19.08;;;6.78;;
71106;SDS011;58763;47.982;11.516;2023-09-30T07:02:23;17.13;;;6.55;;
71106;SDS011;58763;47.982;11.516;2023-09-30T07:04:49;16.38;;;6.22;;
71106;SDS011;58763;47.982;11.516;2023-09-30T07:07:14;16.30;;;5.85;;
71106;SDS011;58763;47.982;11.516;2023-09-30T07:09:40;18.70;;;5.95;;
71106;SDS011;58763;47.982;11.516;2023-09-30T07:12:07;18.25;;;6.53;;
71106;SDS011;58763;47.982;11.516;2023-09-30T07:14:33;13.98;;;5.80;;
71106;SDS011;58763;47.982;11.516;2023-09-30T07:16:58;14.88;;;5.32;;
71106;SDS011;58763;47.982;11.516;2023-09-30T07:19:24;16.60;;;5.75;;
71106;SDS011;58763;47.982;11.516;2023-09-30T07:21:50;15.25;;;5.60;;
71106;SDS011;58763;47.982;11.516;2023-09-30T07:24:15;14.90;;;5.25;;
71106;SDS011;58763;47.982;11.516;2023-09-30T07:26:41;16.42;;;5.75;;
71106;SDS011;58763;47.982;11.516;2023-09-30T07:29:06;14.80;;;5.55;;
71106;SDS011;58763;47.982;11.516;2023-09-30T07:31:35;13.25;;;4.72;;
71106;SDS011;58763;47.982;11.516;2023-09-30T07:34:01;14.63;;;5.15;;
71106;SDS011;58763;47.982;11.516;2023-09-30T07:36:27;14.35;;;5.15;;
71106;SDS011;58763;47.982;11.516;2023-09-30T07:38:52;14.32;;;5.30;;
71106;SDS011;58763;47.982;11.516;2023-09-30T07:41:18;13.80;;;5.30;;
71106;SDS011;58763;47.982;11.516;2023-09-30T07:43:43;15.32;;;5.25;;
71106;SDS011;58763;47.982;11.516;2023-09-30T07:46:09;11.98;;;4.82;;
71106;SDS011;58763;47.982;11.516;2023-09-30T07:48:35;13.23;;;4.93;;
71106;SDS011;58763;47.982;11.516;2023-09-30T07:51:00;13.48;;;4.00;;
71106;SDS011;58763;47.982;11.516;2023-09-30T07:53:27;12.48;;;4.40;;
71106;SDS011;58763;47.982;11.516;2023-09-30T07:55:53;11.10;;;4.30;;
71106;SDS011;58763;47.982;11.516;2023-09-30T07:58:20;13.05;;;4.50;;
71106;SDS011;58763;47.982;11.516;2023-09-30T08:00:45;12.57;;;4.18;;
71106;SDS011;58763;47.982;11.516;2023-09-30T08:03:11;12.57;;;4.45;;
71106;SDS011;58763;47.982;11.516;2023-09-30T08:05:37;12.90;;;4.85;;
71106;SDS011;58763;47.982;11.516;2023-09-30T08:08:03;12.32;;;4.50;;
71106;SDS011;58763;47.982;11.516;2023-09-30T08:10:30;12.27;;;4.43;;
71106;SDS011;58763;47.982;11.516;2023-09-30T08:12:57;11.60;;;4.80;;
71106;SDS011;58763;47.982;11.516;2023-09-30T08:15:26;12.73;;;4.68;;
71106;SDS011;58763;47.982;11.516;2023-09-30T08:17:51;13.70;;;4.45;;
71106;SDS011;58763;47.982;11.516;2023-09-30T08:20:17;13.02;;;4.68;;
71106;SDS011;58763;47.982;11.516;2023-09-30T08:22:44;15.10;;;4.90;;
71106;SDS011;58763;47.982;11.516;2023-09-30T08:25:10;11.68;;;4.57;;
71106;SDS011;58763;47.982;11.516;2023-09-30T08:27:36;14.10;;;4.97;;
71106;SDS011;58763;47.982;11.516;2023-09-30T08:30:03;12.52;;;4.65;;
71106;SDS011;58763;47.982;11.516;2023-09-30T08:32:34;12.65;;;4.78;;
71106;SDS011;58763;47.982;11.516;2023-09-30T08:35:00;10.90;;;4.70;;
71106;SDS011;58763;47.982;11.516;2023-09-30T08:37:27;13.18;;;5.13;;
71106;SDS011;58763;47.982;11.516;2023-09-30T08:39:53;14.50;;;4.93;;
71106;SDS011;58763;47.982;11.516;2023-09-30T08:42:18;13.02;;;4.85;;
71106;SDS011;58763;47.982;11.516;2023-09-30T08:44:45;12.63;;;4.75;;
71106;SDS011;58763;47.982;11.516;2023-09-30T08:47:12;14.20;;;5.10;;
71106;SDS011;58763;47.982;11.516;2023-09-30T08:49:39;13.02;;;4.78;;
71106;SDS011;58763;47.982;11.516;2023-09-30T08:52:06;11.57;;;4.97;;
71106;SDS011;58763;47.982;11.516;2023-09-30T08:54:34;14.07;;;4.88;;
71106;SDS011;58763;47.982;11.516;2023-09-30T08:57:00;13.80;;;4.80;;
71106;SDS011;58763;47.982;11.516;2023-09-30T08:59:26;13.20;;;5.20;;
71106;SDS011;58763;47.982;11.516;2023-09-30T09:01:53;13.32;;;4.57;;
71106;SDS011;58763;47.982;11.516;2023-09-30T09:04:18;11.90;;;4.93;;
71106;SDS011;58763;47.982;11.516;2023-09-30T09:06:44;12.50;;;4.72;;
71106;SDS011;58763;47.982;11.516;2023-09-30T09:09:17;15.40;;;5.00;;
71106;SDS011;58763;47.982;11.516;2023-09-30T09:11:44;14.93;;;5.53;;
71106;SDS011;58763;47.982;11.516;2023-09-30T09:14:10;14.02;;;4.85;;
71106;SDS011;58763;47.982;11.516;2023-09-30T09:16:36;13.43;;;4.97;;
71106;SDS011;58763;47.982;11.516;2023-09-30T09:19:14;14.43;;;5.70;;
71106;SDS011;58763;47.982;11.516;2023-09-30T09:21:59;12.57;;;4.95;;
71106;SDS011;58763;47.982;11.516;2023-09-30T09:27:10;15.38;;;5.30;;
71106;SDS011;58763;47.982;11.516;2023-09-30T09:29:37;15.70;;;5.95;;
71106;SDS011;58763;47.982;11.516;2023-09-30T09:32:14;12.60;;;5.28;;
71106;SDS011;58763;47.982;11.516;2023-09-30T09:34:42;14.75;;;5.38;;
71106;SDS011;58763;47.982;11.516;2023-09-30T09:37:16;16.95;;;5.25;;
71106;SDS011;58763;47.982;11.516;2023-09-30T09:39:53;11.88;;;5.15;;
71106;SDS011;58763;47.982;11.516;2023-09-30T09:42:28;16.45;;;5.90;;
71106;SDS011;58763;47.982;11.516;2023-09-30T09:44:56;14.55;;;5.68;;
71106;SDS011;58763;47.982;11.516;2023-09-30T09:47:23;14.27;;;5.25;;
71106;SDS011;58763;47.982;11.516;2023-09-30T09:49:50;14.10;;;5.05;;
71106;SDS011;58763;47.982;11.516;2023-09-30T09:52:18;14.85;;;5.82;;
71106;SDS011;58763;47.982;11.516;2023-09-30T09:54:45;12.43;;;5.40;;
71106;SDS011;58763;47.982;11.516;2023-09-30T09:57:12;13.40;;;5.32;;
71106;SDS011;58763;47.982;11.516;2023-09-30T09:59:40;15.05;;;5.30;;
71106;SDS011;58763;47.982;11.516;2023-09-30T10:04:40;14.25;;;5.07;;
71106;SDS011;58763;47.982;11.516;2023-09-30T10:07:09;13.32;;;5.40;;
71106;SDS011;58763;47.982;11.516;2023-09-30T10:09:39;15.27;;;5.60;;
71106;SDS011;58763;47.982;11.516;2023-09-30T10:12:08;15.10;;;5.90;;
71106;SDS011;58763;47.982;11.516;2023-09-30T10:14:35;16.50;;;6.00;;
71106;SDS011;58763;47.982;11.516;2023-09-30T10:17:01;16.52;;;6.55;;
71106;SDS011;58763;47.982;11.516;2023-09-30T10:19:28;14.95;;;6.10;;
71106;SDS011;58763;47.982;11.516;2023-09-30T10:24:43;16.27;;;6.03;;
71106;SDS011;58763;47.982;11.516;2023-09-30T10:36:01;16.10;;;6.20;;
71106;SDS011;58763;47.982;11.516;2023-09-30T10:40:52;17.83;;;6.63;;
71106;SDS011;58763;47.982;11.516;2023-09-30T10:43:31;16.08;;;6.25;;
71106;SDS011;58763;47.982;11.516;2023-09-30T10:46:01;17.02;;;6.30;;
71106;SDS011;58763;47.982;11.516;2023-09-30T10:48:50;16.15;;;5.97;;
71106;SDS011;58763;47.982;11.516;2023-09-30T10:51:17;16.77;;;7.13;;
71106;SDS011;58763;47.982;11.516;2023-09-30T10:56:14;16.45;;;6.10;;
71106;SDS011;58763;47.982;11.516;2023-09-30T10:58:40;15.02;;;5.55;;
71106;SDS011;58763;47.982;11.516;2023-09-30T11:01:08;15.30;;;6.68;;
71106;SDS011;58763;47.982;11.516;2023-09-30T11:03:35;16.02;;;6.35;;
71106;SDS011;58763;47.982;11.516;2023-09-30T11:06:02;18.40;;;6.95;;
71106;SDS011;58763;47.982;11.516;2023-09-30T11:08:29;17.98;;;6.80;;
71106;SDS011;58763;47.982;11.516;2023-09-30T11:10:55;19.23;;;7.43;;
71106;SDS011;58763;47.982;11.516;2023-09-30T11:13:21;18.58;;;7.32;;
71106;SDS011;58763;47.982;11.516;2023-09-30T11:15:47;21.55;;;7.95;;
71106;SDS011;58763;47.982;11.516;2023-09-30T11:18:13;21.48;;;8.15;;
71106;SDS011;58763;47.982;11.516;2023-09-30T11:20:40;18.63;;;8.07;;
71106;SDS011;58763;47.982;11.516;2023-09-30T11:23:06;18.75;;;7.43;;
71106;SDS011;58763;47.982;11.516;2023-09-30T11:25:35;18.58;;;7.40;;
71106;SDS011;58763;47.982;11.516;2023-09-30T11:28:18;20.00;;;8.32;;
71106;SDS011;58763;47.982;11.516;2023-09-30T11:31:07;22.60;;;8.65;;
71106;SDS011;58763;47.982;11.516;2023-09-30T11:33:32;22.10;;;8.95;;
71106;SDS011;58763;47.982;11.516;2023-09-30T11:36:07;19.30;;;7.80;;
71106;SDS011;58763;47.982;11.516;2023-09-30T11:38:34;17.88;;;7.38;;
71106;SDS011;58763;47.982;11.516;2023-09-30T11:41:06;19.05;;;7.55;;
71106;SDS011;58763;47.982;11.516;2023-09-30T11:43:32;17.23;;;7.57;;
71106;SDS011;58763;47.982;11.516;2023-09-30T11:46:10;19.52;;;7.60;;
71106;SDS011;58763;47.982;11.516;2023-09-30T11:48:40;21.08;;;8.30;;
71106;SDS011;58763;47.982;11.516;2023-09-30T11:51:21;22.08;;;7.93;;
71106;SDS011;58763;47.982;11.516;2023-09-30T11:53:49;17.83;;;7.78;;
71106;SDS011;58763;47.982;11.516;2023-09-30T11:56:15;22.35;;;7.97;;
71106;SDS011;58763;47.982;11.516;2023-09-30T11:58:44;20.35;;;8.15;;
71106;SDS011;58763;47.982;11.516;2023-09-30T12:01:11;20.10;;;7.60;;
71106;SDS011;58763;47.982;11.516;2023-09-30T12:03:39;19.05;;;7.55;;
71106;SDS011;58763;47.982;11.516;2023-09-30T12:06:05;17.42;;;6.82;;
71106;SDS011;58763;47.982;11.516;2023-09-30T12:08:31;17.33;;;6.63;;
71106;SDS011;58763;47.982;11.516;2023-09-30T12:10:57;16.63;;;7.22;;
71106;SDS011;58763;47.982;11.516;2023-09-30T12:13:25;17.92;;;6.95;;
71106;SDS011;58763;47.982;11.516;2023-09-30T12:15:51;19.20;;;7.32;;
71106;SDS011;58763;47.982;11.516;2023-09-30T12:18:19;18.85;;;7.70;;
71106;SDS011;58763;47.982;11.516;2023-09-30T12:20:51;18.48;;;7.13;;
71106;SDS011;58763;47.982;11.516;2023-09-30T12:23:18;18.73;;;7.63;;
71106;SDS011;58763;47.982;11.516;2023-09-30T12:25:45;19.38;;;7.63;;
71106;SDS011;58763;47.982;11.516;2023-09-30T12:28:11;18.52;;;7.80;;
71106;SDS011;58763;47.982;11.516;2023-09-30T12:30:39;22.60;;;8.82;;
71106;SDS011;58763;47.982;11.516;2023-09-30T12:33:05;18.77;;;7.57;;
71106;SDS011;58763;47.982;11.516;2023-09-30T12:35:32;21.85;;;8.48;;
71106;SDS011;58763;47.982;11.516;2023-09-30T12:37:58;21.67;;;8.73;;
71106;SDS011;58763;47.982;11.516;2023-09-30T12:40:24;18.88;;;8.20;;
71106;SDS011;58763;47.982;11.516;2023-09-30T12:42:50;20.30;;;8.32;;
71106;SDS011;58763;47.982;11.516;2023-09-30T12:45:15;21.88;;;8.30;;
71106;SDS011;58763;47.982;11.516;2023-09-30T12:47:43;18.75;;;8.45;;
71106;SDS011;58763;47.982;11.516;2023-09-30T12:50:09;19.35;;;8.20;;
71106;SDS011;58763;47.982;11.516;2023-09-30T12:52:35;19.92;;;8.13;;
71106;SDS011;58763;47.982;11.516;2023-09-30T12:55:01;17.30;;;7.70;;
71106;SDS011;58763;47.982;11.516;2023-09-30T12:57:27;17.50;;;7.47;;
71106;SDS011;58763;47.982;11.516;2023-09-30T12:59:53;17.67;;;6.65;;
71106;SDS011;58763;47.982;11.516;2023-09-30T13:02:18;18.25;;;7.70;;
71106;SDS011;58763;47.982;11.516;2023-09-30T13:04:44;19.00;;;7.50;;
71106;SDS011;58763;47.982;11.516;2023-09-30T13:07:11;16.50;;;7.00;;
71106;SDS011;58763;47.982;11.516;2023-09-30T13:09:41;16.92;;;6.55;;
71106;SDS011;58763;47.982;11.516;2023-09-30T13:12:06;14.80;;;6.45;;
71106;SDS011;58763;47.982;11.516;2023-09-30T13:14:32;15.75;;;6.88;;
71106;SDS011;58763;47.982;11.516;2023-09-30T13:16:58;15.45;;;6.18;;
71106;SDS011;58763;47.982;11.516;2023-09-30T13:19:24;18.05;;;6.88;;
71106;SDS011;58763;47.982;11.516;2023-09-30T13:21:50;16.63;;;6.40;;
71106;SDS011;58763;47.982;11.516;2023-09-30T13:24:16;16.33;;;5.82;;
71106;SDS011;58763;47.982;11.516;2023-09-30T13:26:41;15.35;;;6.20;;
71106;SDS011;58763;47.982;11.516;2023-09-30T13:29:07;16.63;;;6.55;;
71106;SDS011;58763;47.982;11.516;2023-09-30T13:31:35;15.52;;;5.90;;
71106;SDS011;58763;47.982;11.516;2023-09-30T13:34:06;15.88;;;6.60;;
71106;SDS011;58763;47.982;11.516;2023-09-30T13:36:33;15.70;;;6.33;;
71106;SDS011;58763;47.982;11.516;2023-09-30T13:38:58;15.70;;;5.80;;
71106;SDS011;58763;47.982;11.516;2023-09-30T13:41:24;15.25;;;5.97;;
71106;SDS011;58763;47.982;11.516;2023-09-30T13:43:50;16.50;;;6.30;;
71106;SDS011;58763;47.982;11.516;2023-09-30T13:46:15;14.50;;;5.68;;
71106;SDS011;58763;47.982;11.516;2023-09-30T13:48:42;13.80;;;5.78;;
71106;SDS011;58763;47.982;11.516;2023-09-30T13:51:08;16.60;;;6.60;;
71106;SDS011;58763;47.982;11.516;2023-09-30T13:53:36;14.52;;;5.70;;
71106;SDS011;58763;47.982;11.516;2023-09-30T13:56:02;15.85;;;6.20;;
71106;SDS011;58763;47.982;11.516;2023-09-30T13:58:31;14.23;;;6.00;;
71106;SDS011;58763;47.982;11.516;2023-09-30T14:00:56;14.10;;;5.75;;
71106;SDS011;58763;47.982;11.516;2023-09-30T14:03:27;16.45;;;5.80;;
71106;SDS011;58763;47.982;11.516;2023-09-30T14:05:55;14.20;;;5.85;;
71106;SDS011;58763;47.982;11.516;2023-09-30T14:08:22;13.50;;;5.45;;
71106;SDS011;58763;47.982;11.516;2023-09-30T14:10:49;12.80;;;5.40;;
71106;SDS011;58763;47.982;11.516;2023-09-30T14:13:16;13.23;;;5.47;;
71106;SDS011;58763;47.982;11.516;2023-09-30T14:15:44;12.32;;;5.18;;
71106;SDS011;58763;47.982;11.516;2023-09-30T14:18:10;13.75;;;6.05;;
71106;SDS011;58763;47.982;11.516;2023-09-30T14:20:35;16.38;;;5.70;;
71106;SDS011;58763;47.982;11.516;2023-09-30T14:23:01;16.30;;;5.78;;
71106;SDS011;58763;47.982;11.516;2023-09-30T14:25:27;13.05;;;5.57;;
71106;SDS011;58763;47.982;11.516;2023-09-30T14:27:52;14.90;;;5.38;;
71106;SDS011;58763;47.982;11.516;2023-09-30T14:30:18;13.82;;;5.45;;
71106;SDS011;58763;47.982;11.516;2023-09-30T14:32:45;14.00;;;5.43;;
71106;SDS011;58763;47.982;11.516;2023-09-30T14:35:10;12.15;;;5.60;;
71106;SDS011;58763;47.982;11.516;2023-09-30T14:37:36;14.60;;;5.75;;
71106;SDS011;58763;47.982;11.516;2023-09-30T14:40:02;12.75;;;5.10;;
71106;SDS011;58763;47.982;11.516;2023-09-30T14:42:31;12.32;;;5.32;;
71106;SDS011;58763;47.982;11.516;2023-09-30T14:44:57;13.65;;;5.45;;